Time;durP1;ratioP1;P1;durP2;ratioP2;P2;SDS_P1;SDS_P2;PMS_P1;PMS_P2;Temp;Humidity;BMP_temperature;BMP_pressure;BME280_temperature;BME280_humidity;BME280_pressure;Samples;Min_cycle;Max_cycle;Signal;HPM_P1;HPM_P2
2023/01/30 00:01:45;;;;;;;14.67;11.77;;;;;;;1.04;59.84;95161.22;5048757;28;20225;-63
2023/01/30 00:04:11;;;;;;;16.00;12.50;;;;;;;1.03;60.04;95156.97;5044309;28;20200;-64
2023/01/30 00:06:40;;;;;;;14.03;11.70;;;;;;;1.14;59.61;95152.00;5053722;28;20185;-64
2023/01/30 00:09:07;;;;;;;15.47;12.10;;;;;;;1.09;59.88;95148.84;5040132;28;20269;-64
2023/01/30 00:11:32;;;;;;;15.77;12.30;;;;;;;1.01;59.65;95145.88;5047122;28;20225;-64
2023/01/30 00:13:58;;;;;;;15.10;12.47;;;;;;;1.03;59.86;95146.63;5043932;28;20236;-65
2023/01/30 00:16:24;;;;;;;15.57;12.20;;;;;;;1.03;59.27;95147.44;5051479;28;20216;-64
2023/01/30 00:18:49;;;;;;;16.40;12.67;;;;;;;1.04;59.92;95145.69;5050278;28;20197;-64
2023/01/30 00:21:21;;;;;;;16.60;13.87;;;;;;;1.08;59.39;95144.59;5050257;28;20241;-64
2023/01/30 00:23:46;;;;;;;16.23;12.73;;;;;;;1.08;59.69;95147.19;5048714;28;20226;-64
2023/01/30 00:26:12;;;;;;;15.93;12.97;;;;;;;1.12;60.40;95160.78;5049385;28;20441;-64
2023/01/30 00:28:38;;;;;;;16.33;12.60;;;;;;;1.31;58.99;95144.06;5049776;28;20308;-64
2023/01/30 00:31:04;;;;;;;18.90;14.33;;;;;;;1.05;60.48;95143.03;5053988;28;20275;-64
2023/01/30 00:33:30;;;;;;;17.03;13.80;;;;;;;1.10;60.38;95142.75;5047356;28;20189;-64
2023/01/30 00:35:56;;;;;;;18.67;13.73;;;;;;;1.21;59.88;95142.94;5045029;28;20216;-66
2023/01/30 00:38:23;;;;;;;16.90;13.67;;;;;;;1.14;60.08;95152.00;5049458;28;20217;-64
2023/01/30 00:40:48;;;;;;;16.07;13.10;;;;;;;0.85;60.86;95140.75;5051382;28;20278;-65
2023/01/30 00:49:10;;;;;;;16.20;13.80;;;;;;;0.98;60.95;95125.34;4985670;28;20230;-65
2023/01/30 00:51:35;;;;;;;15.43;12.40;;;;;;;1.05;60.57;95131.84;4988398;28;20192;-67
2023/01/30 00:54:01;;;;;;;17.27;12.30;;;;;;;0.87;61.03;95124.22;4989264;28;20228;-65
2023/01/30 00:56:26;;;;;;;15.33;12.90;;;;;;;0.94;60.87;95129.06;4984455;28;20393;-65
2023/01/30 00:58:51;;;;;;;16.47;13.00;;;;;;;0.84;61.06;95127.00;4972073;28;20227;-65
2023/01/30 01:01:17;;;;;;;16.00;12.83;;;;;;;0.66;61.47;95126.31;4982324;28;20223;-65
2023/01/30 01:03:42;;;;;;;18.17;13.33;;;;;;;0.79;61.60;95123.00;4971068;28;20200;-65
2023/01/30 01:06:08;;;;;;;19.13;13.97;;;;;;;0.65;61.76;95127.25;4970998;28;20334;-65
2023/01/30 01:08:33;;;;;;;17.50;13.37;;;;;;;0.53;62.26;95124.53;4985000;28;20300;-65
2023/01/30 01:10:59;;;;;;;17.60;12.43;;;;;;;0.68;62.09;95123.63;4984391;28;20227;-65
2023/01/30 01:13:24;;;;;;;17.73;13.27;;;;;;;0.82;61.51;95115.88;4984427;28;20239;-65
2023/01/30 01:15:50;;;;;;;17.80;13.23;;;;;;;0.88;61.13;95117.28;4984133;28;20254;-65
2023/01/30 01:18:15;;;;;;;18.13;13.00;;;;;;;0.78;61.37;95124.78;4988123;28;20234;-65
2023/01/30 01:20:41;;;;;;;15.57;12.47;;;;;;;0.71;61.83;95113.09;4971218;28;20234;-65
2023/01/30 01:23:08;;;;;;;16.37;12.43;;;;;;;0.79;61.07;95105.72;4975077;28;20261;-65
2023/01/30 01:25:34;;;;;;;18.50;13.47;;;;;;;0.56;61.82;95101.06;5033204;28;20296;-65
2023/01/30 01:27:59;;;;;;;17.87;13.93;;;;;;;0.66;61.81;95104.78;5047525;28;20269;-65
2023/01/30 01:30:25;;;;;;;17.63;13.70;;;;;;;0.65;61.76;95103.13;5047952;28;20646;-65
2023/01/30 01:32:50;;;;;;;17.97;12.50;;;;;;;0.77;61.10;95109.31;5050095;28;20232;-65
2023/01/30 01:35:16;;;;;;;17.23;13.10;;;;;;;0.73;61.32;95106.09;5045298;28;20233;-65
2023/01/30 01:37:41;;;;;;;16.83;12.60;;;;;;;0.68;61.47;95102.94;5052916;28;20595;-65
2023/01/30 01:42:51;;;;;;;16.30;12.60;;;;;;;0.77;61.60;95106.72;5052686;28;20212;-65
2023/01/30 01:45:25;;;;;;;17.00;12.90;;;;;;;0.87;61.46;95105.28;5050785;28;20221;-65
2023/01/30 01:48:11;;;;;;;17.13;13.20;;;;;;;0.59;61.35;95114.66;5050678;28;20364;-64
2023/01/30 01:50:41;;;;;;;15.83;12.13;;;;;;;0.50;62.49;95104.84;5055025;28;20232;-64
2023/01/30 01:53:08;;;;;;;15.00;11.73;;;;;;;0.51;61.69;95106.53;5052055;28;20250;-64
2023/01/30 01:55:34;;;;;;;17.63;12.10;;;;;;;0.55;61.91;95107.16;5052299;28;20221;-64
2023/01/30 01:58:07;;;;;;;17.07;12.60;;;;;;;0.63;61.48;95110.97;5053852;28;20185;-64
2023/01/30 02:00:33;;;;;;;15.97;12.40;;;;;;;0.59;61.85;95108.66;5050196;28;20193;-64
2023/01/30 02:03:05;;;;;;;15.07;12.47;;;;;;;0.77;61.40;95115.31;5050236;28;20225;-67
2023/01/30 02:05:34;;;;;;;14.83;11.43;;;;;;;0.80;60.91;95111.72;5057249;28;20299;-64
2023/01/30 02:08:07;;;;;;;16.03;12.07;;;;;;;0.81;61.33;95113.41;5039635;28;20216;-63
2023/01/30 02:10:55;;;;;;;15.07;11.70;;;;;;;0.83;61.07;95117.56;5045155;28;20225;-63
2023/01/30 02:13:22;;;;;;;14.00;11.47;;;;;;;1.00;60.92;95113.97;5051659;28;20247;-64
2023/01/30 02:15:49;;;;;;;13.90;10.83;;;;;;;1.05;60.26;95111.13;5051854;28;20193;-64
2023/01/30 02:18:15;;;;;;;14.50;11.63;;;;;;;1.11;60.38;95113.34;5052679;28;20217;-65
2023/01/30 02:21:05;;;;;;;14.87;11.47;;;;;;;1.13;59.59;95106.31;5048403;28;20293;-64
2023/01/30 02:23:43;;;;;;;15.67;11.37;;;;;;;1.04;60.26;95112.03;5048765;28;20230;-64
2023/01/30 02:26:43;;;;;;;15.67;12.40;;;;;;;1.03;60.35;95118.97;5051067;28;20225;-65
2023/01/30 02:29:25;;;;;;;15.20;12.00;;;;;;;0.83;60.54;95109.81;4970071;28;20232;-65
2023/01/30 02:32:02;;;;;;;15.23;11.20;;;;;;;0.88;59.92;95099.16;4973117;28;20223;-65
2023/01/30 02:34:51;;;;;;;13.90;10.13;;;;;;;0.81;60.07;95111.66;4988621;28;20333;-64
2023/01/30 02:37:28;;;;;;;15.07;11.23;;;;;;;0.50;60.58;95106.59;4988043;28;20231;-64
2023/01/30 02:40:25;;;;;;;12.57;10.23;;;;;;;0.78;60.53;95106.66;4972779;28;20214;-65
2023/01/30 02:43:01;;;;;;;13.80;10.47;;;;;;;0.85;59.88;95105.34;4986219;28;20223;-64
2023/01/30 02:45:32;;;;;;;13.80;10.73;;;;;;;0.88;59.70;95092.25;4969924;28;20223;-64
2023/01/30 02:47:58;;;;;;;12.93;10.50;;;;;;;0.77;60.23;95102.38;4971090;28;20302;-64
2023/01/30 02:50:36;;;;;;;13.33;10.23;;;;;;;0.51;60.67;95090.13;4966855;28;20239;-64
2023/01/30 02:53:03;;;;;;;13.40;10.07;;;;;;;0.66;60.50;95097.00;4970344;28;20276;-64
2023/01/30 02:55:29;;;;;;;12.63;9.73;;;;;;;0.72;60.05;95094.06;4967714;28;20227;-64
2023/01/30 02:57:55;;;;;;;13.20;9.93;;;;;;;0.72;60.28;95099.22;4986213;28;20191;-64
2023/01/30 03:00:41;;;;;;;16.73;11.03;;;;;;;0.61;60.07;95097.28;4972518;28;20243;-64
2023/01/30 03:03:41;;;;;;;13.40;10.50;;;;;;;0.71;60.11;95096.75;4905118;29;20501;-64
2023/01/30 03:06:09;;;;;;;13.67;10.60;;;;;;;0.50;60.38;95097.06;4854193;29;20271;-64
2023/01/30 03:08:58;;;;;;;13.70;9.87;;;;;;;0.59;60.34;95093.97;4886249;29;20298;-64
2023/01/30 03:11:32;;;;;;;13.90;10.77;;;;;;;0.58;60.49;95099.22;4838954;29;20245;-64
2023/01/30 03:14:08;;;;;;;12.97;10.00;;;;;;;0.82;59.82;95090.00;4842152;29;20240;-64
2023/01/30 03:16:38;;;;;;;12.03;10.00;;;;;;;0.73;59.50;95087.16;4822129;29;20235;-64
2023/01/30 03:19:08;;;;;;;15.20;9.40;;;;;;;0.64;59.63;95076.41;4840085;29;20316;-63
2023/01/30 03:21:33;;;;;;;12.60;9.53;;;;;;;0.65;59.04;95088.41;4836826;29;20281;-64
2023/01/30 03:23:59;;;;;;;12.83;9.63;;;;;;;0.52;59.93;95074.53;4841933;29;20292;-65
2023/01/30 03:26:29;;;;;;;14.23;10.20;;;;;;;0.55;59.62;95068.34;4823138;29;20224;-64
2023/01/30 03:28:56;;;;;;;13.10;9.40;;;;;;;0.66;59.20;95068.53;4843698;29;20453;-64
2023/01/30 03:31:21;;;;;;;11.27;8.67;;;;;;;0.43;59.76;95062.97;4823390;29;20237;-64
2023/01/30 03:33:46;;;;;;;12.67;9.77;;;;;;;0.41;59.84;95059.63;4842435;29;20335;-64
2023/01/30 03:36:12;;;;;;;12.40;8.80;;;;;;;0.56;59.71;95052.75;4829641;29;20231;-65
2023/01/30 03:38:38;;;;;;;13.63;8.97;;;;;;;0.54;59.66;95059.75;4839282;29;20224;-64
2023/01/30 03:41:04;;;;;;;11.47;8.50;;;;;;;0.50;59.45;95054.84;4853275;29;20237;-64
2023/01/30 03:43:30;;;;;;;11.67;8.80;;;;;;;0.52;59.29;95048.66;4922514;28;20315;-64
2023/01/30 03:45:55;;;;;;;13.43;9.43;;;;;;;0.57;59.72;95058.75;4955672;28;20293;-64
2023/01/30 03:48:21;;;;;;;11.23;8.33;;;;;;;0.29;60.00;95050.00;4994593;28;20218;-64
2023/01/30 03:50:46;;;;;;;12.33;9.27;;;;;;;0.20;60.69;95059.13;5053335;28;20261;-64
2023/01/30 03:53:11;;;;;;;13.53;9.30;;;;;;;0.43;60.47;95052.63;5048661;28;20375;-64
2023/01/30 03:55:38;;;;;;;11.73;9.77;;;;;;;0.51;59.85;95053.91;5052317;28;20221;-64
2023/01/30 03:58:03;;;;;;;12.93;9.70;;;;;;;0.38;60.76;95056.41;5046917;28;20190;-64
2023/01/30 04:00:29;;;;;;;13.50;10.00;;;;;;;0.55;60.27;95055.41;5051815;28;20208;-64
2023/01/30 04:02:56;;;;;;;13.43;10.47;;;;;;;0.45;60.87;95044.75;5049428;28;20217;-64
2023/01/30 04:05:22;;;;;;;13.70;10.13;;;;;;;0.43;60.67;95047.47;5052775;28;20213;-64
2023/01/30 04:07:48;;;;;;;12.13;10.67;;;;;;;0.45;60.23;95047.34;5053611;28;20312;-64
2023/01/30 04:10:14;;;;;;;15.43;10.50;;;;;;;0.41;60.58;95044.13;5047720;28;20276;-65
2023/01/30 04:12:41;;;;;;;13.77;10.50;;;;;;;0.32;61.23;95048.97;5047895;28;20193;-65
2023/01/30 04:15:07;;;;;;;12.30;10.33;;;;;;;0.32;61.16;95046.41;5049959;28;20243;-65
2023/01/30 04:17:33;;;;;;;12.87;10.70;;;;;;;0.49;60.98;95054.03;5049416;28;20248;-65
2023/01/30 04:19:58;;;;;;;13.43;10.33;;;;;;;0.27;61.23;95051.84;5048200;28;20333;-65
2023/01/30 04:22:24;;;;;;;12.83;10.20;;;;;;;0.37;61.23;95049.56;5049098;28;20665;-65
2023/01/30 04:24:49;;;;;;;11.73;9.03;;;;;;;0.38;60.66;95053.81;5048081;28;20197;-65
2023/01/30 04:27:15;;;;;;;12.80;10.37;;;;;;;0.34;61.26;95047.97;5049597;28;20604;-65
2023/01/30 04:29:41;;;;;;;14.10;11.00;;;;;;;0.38;61.04;95057.25;5054017;28;20231;-65
2023/01/30 04:32:06;;;;;;;15.83;10.83;;;;;;;0.34;61.44;95045.38;5053146;28;20246;-65
2023/01/30 04:34:32;;;;;;;14.63;11.53;;;;;;;0.40;61.40;95049.38;5052737;28;20229;-65
2023/01/30 04:36:57;;;;;;;15.80;11.60;;;;;;;0.51;61.23;95054.78;5048384;28;20284;-65
2023/01/30 04:39:23;;;;;;;15.20;11.50;;;;;;;0.43;60.93;95052.63;5048656;28;20189;-66
2023/01/30 04:41:48;;;;;;;15.40;11.33;;;;;;;0.42;60.73;95052.72;5048033;28;20234;-63
2023/01/30 04:44:13;;;;;;;13.77;11.17;;;;;;;0.23;61.63;95047.78;5046225;28;20249;-64
2023/01/30 04:46:39;;;;;;;12.03;9.80;;;;;;;0.19;61.67;95043.72;5048348;28;20225;-64
2023/01/30 04:49:04;;;;;;;14.03;11.90;;;;;;;0.20;61.91;95032.44;5048664;28;20239;-62
2023/01/30 04:51:30;;;;;;;14.90;11.87;;;;;;;0.32;61.95;95031.75;5047139;28;20193;-64
2023/01/30 04:53:55;;;;;;;16.70;12.13;;;;;;;0.53;61.21;95036.56;5053049;28;20228;-64
2023/01/30 04:56:21;;;;;;;15.07;11.73;;;;;;;0.49;60.68;95024.75;5047199;28;20229;-65
2023/01/30 04:58:46;;;;;;;15.33;11.67;;;;;;;0.41;61.74;95028.59;5051835;28;20221;-64
2023/01/30 05:01:14;;;;;;;15.67;11.73;;;;;;;0.44;61.28;95023.25;5050783;28;20227;-64
2023/01/30 05:03:40;;;;;;;15.87;11.73;;;;;;;0.35;61.85;95023.78;5047725;28;20182;-64
2023/01/30 05:06:05;;;;;;;14.67;12.00;;;;;;;0.43;61.38;95025.94;5056208;28;20326;-63
2023/01/30 05:08:31;;;;;;;17.50;13.20;;;;;;;0.34;62.41;95026.47;5052494;28;20480;-64
2023/01/30 05:10:57;;;;;;;16.57;12.00;;;;;;;0.30;62.38;95025.00;5050065;28;20232;-64
2023/01/30 05:13:22;;;;;;;16.30;12.00;;;;;;;0.40;61.80;95026.09;5050408;28;20301;-64
2023/01/30 05:15:48;;;;;;;14.43;12.07;;;;;;;0.28;62.63;95030.25;5053677;28;20258;-63
2023/01/30 05:18:13;;;;;;;16.13;12.03;;;;;;;0.26;62.58;95029.50;5052262;28;20240;-64
2023/01/30 05:20:38;;;;;;;15.93;12.70;;;;;;;0.30;62.33;95028.41;5052223;28;20225;-64
2023/01/30 05:23:04;;;;;;;17.37;13.00;;;;;;;0.28;62.78;95032.81;5050045;28;20239;-64
2023/01/30 05:25:29;;;;;;;17.93;13.23;;;;;;;0.40;62.38;95039.88;5051708;28;20563;-63
2023/01/30 05:27:55;;;;;;;18.63;12.90;;;;;;;0.55;62.50;95039.88;5054118;28;20212;-63
2023/01/30 05:30:21;;;;;;;16.87;13.50;;;;;;;0.53;61.92;95037.38;5050263;28;20233;-64
2023/01/30 05:32:46;;;;;;;18.77;14.13;;;;;;;0.50;62.38;95036.75;5051405;28;20228;-64
2023/01/30 05:35:12;;;;;;;18.17;13.37;;;;;;;0.56;62.06;95034.63;5058314;28;20213;-64
2023/01/30 05:37:38;;;;;;;18.07;13.37;;;;;;;0.47;62.23;95035.16;5057438;28;20209;-64
2023/01/30 05:40:05;;;;;;;18.70;14.43;;;;;;;0.61;62.38;95031.75;5049259;28;20185;-64
2023/01/30 05:42:30;;;;;;;17.00;13.30;;;;;;;0.63;61.99;95033.34;5052715;28;20182;-65
2023/01/30 05:44:56;;;;;;;19.27;13.97;;;;;;;0.43;62.60;95037.09;5051664;28;20240;-64
2023/01/30 05:47:21;;;;;;;19.50;14.33;;;;;;;0.28;63.03;95038.00;5053597;28;20213;-65
2023/01/30 05:49:47;;;;;;;19.47;14.00;;;;;;;0.45;62.68;95039.59;5052142;28;20237;-64
2023/01/30 05:52:12;;;;;;;19.80;14.40;;;;;;;0.56;62.48;95037.22;5051460;28;20287;-64
2023/01/30 05:54:38;;;;;;;19.17;14.47;;;;;;;0.45;62.88;95037.00;5053600;28;20188;-65
2023/01/30 05:57:03;;;;;;;20.13;15.07;;;;;;;0.22;63.67;95044.38;5049897;28;20235;-64
2023/01/30 05:59:29;;;;;;;21.13;15.63;;;;;;;0.38;62.81;95041.72;5053860;28;20231;-64
2023/01/30 06:01:54;;;;;;;20.60;15.47;;;;;;;0.36;63.05;95051.31;5052713;28;20221;-70
2023/01/30 06:04:20;;;;;;;21.50;16.17;;;;;;;0.14;64.09;95048.31;5051877;28;20221;-70
2023/01/30 06:06:48;;;;;;;21.83;16.20;;;;;;;0.32;63.53;95055.00;5054030;28;20196;-70
2023/01/30 06:09:14;;;;;;;25.00;18.17;;;;;;;0.35;63.09;95052.25;5049946;28;20264;-71
2023/01/30 06:11:39;;;;;;;22.70;16.20;;;;;;;0.15;63.76;95062.91;5050180;28;20254;-71
2023/01/30 06:14:05;;;;;;;25.23;17.67;;;;;;;0.16;63.90;95044.72;5049041;28;20379;-70
2023/01/30 06:16:30;;;;;;;22.90;17.20;;;;;;;0.21;63.96;95045.28;5051877;28;20225;-72
2023/01/30 06:18:56;;;;;;;24.80;17.50;;;;;;;0.27;63.50;95051.00;5060394;28;20185;-72
2023/01/30 06:21:21;;;;;;;25.90;18.50;;;;;;;0.30;63.82;95040.50;5048167;28;20222;-71
2023/01/30 06:23:47;;;;;;;24.33;17.17;;;;;;;-0.11;65.92;95030.75;5049749;28;20226;-71
2023/01/30 06:26:12;;;;;;;28.20;19.63;;;;;;;-0.04;65.93;95026.94;5052006;28;20237;-73
2023/01/30 06:28:38;;;;;;;24.53;17.53;;;;;;;0.07;65.45;95037.47;5046730;28;20232;-73
2023/01/30 06:31:07;;;;;;;26.10;18.10;;;;;;;0.21;65.10;95034.09;5052975;28;20198;-72
2023/01/30 06:33:32;;;;;;;26.77;18.90;;;;;;;0.25;64.46;95038.19;5055901;28;20192;-73
2023/01/30 06:35:58;;;;;;;26.53;19.80;;;;;;;0.43;63.81;95039.69;5053475;28;20216;-73
2023/01/30 06:38:23;;;;;;;27.37;19.50;;;;;;;0.45;63.70;95039.59;5032852;28;20217;-72
2023/01/30 06:40:49;;;;;;;26.33;19.30;;;;;;;0.26;64.09;95037.25;5042265;28;20224;-72
2023/01/30 06:43:15;;;;;;;25.63;18.47;;;;;;;0.50;63.88;95039.31;5038936;28;20189;-72
2023/01/30 06:45:41;;;;;;;26.17;19.03;;;;;;;0.48;63.18;95044.56;5038664;28;20201;-72
2023/01/30 06:48:07;;;;;;;25.53;18.40;;;;;;;0.46;63.70;95041.28;5033695;28;20248;-74
2023/01/30 06:50:33;;;;;;;24.43;17.83;;;;;;;0.38;63.55;95044.31;5046846;28;20217;-73
2023/01/30 06:53:01;;;;;;;25.93;18.27;;;;;;;0.36;63.80;95048.72;5041351;28;20225;-72
2023/01/30 06:55:27;;;;;;;24.80;18.23;;;;;;;0.31;63.90;95050.75;5041102;28;20228;-72
2023/01/30 06:58:03;;;;;;;24.73;17.37;;;;;;;0.40;63.67;95047.63;5042960;28;20194;-72
2023/01/30 07:00:29;;;;;;;26.03;18.60;;;;;;;0.50;63.27;95057.44;5036881;28;20247;-70
2023/01/30 07:02:55;;;;;;;30.20;19.70;;;;;;;0.55;62.53;95052.81;5041600;28;20216;-72
2023/01/30 07:05:20;;;;;;;27.23;18.33;;;;;;;0.42;63.74;95055.28;5042872;28;20609;-70
2023/01/30 07:07:46;;;;;;;27.87;19.83;;;;;;;0.44;63.15;95054.28;5043407;28;20224;-72
2023/01/30 07:10:11;;;;;;;26.13;19.13;;;;;;;0.54;63.15;95056.34;5042864;28;20205;-71
2023/01/30 07:12:37;;;;;;;27.17;19.10;;;;;;;0.56;63.09;95062.25;5037825;28;20282;-71
2023/01/30 07:15:08;;;;;;;26.57;19.23;;;;;;;0.21;64.14;95062.53;5044281;28;20216;-71
2023/01/30 07:17:34;;;;;;;25.30;17.97;;;;;;;0.36;63.65;95059.06;5041579;28;20209;-72
2023/01/30 07:19:59;;;;;;;27.20;18.60;;;;;;;0.37;63.66;95062.50;5049110;28;20216;-74
2023/01/30 07:22:25;;;;;;;24.13;17.53;;;;;;;0.31;63.61;95063.69;5048873;28;20282;-75
2023/01/30 07:24:50;;;;;;;27.30;18.20;;;;;;;0.28;64.09;95061.28;5045213;28;20189;-75
2023/01/30 07:27:16;;;;;;;23.70;17.40;;;;;;;0.31;64.03;95065.44;5041858;28;20272;-76
2023/01/30 07:29:41;;;;;;;26.47;18.77;;;;;;;0.38;63.94;95065.00;5049574;28;20228;-78
2023/01/30 07:32:13;;;;;;;25.40;18.60;;;;;;;0.41;63.47;95064.81;5048063;28;20287;-74
2023/01/30 07:34:38;;;;;;;23.30;17.10;;;;;;;0.51;63.52;95072.88;5062378;28;20314;-73
2023/01/30 07:37:04;;;;;;;25.17;18.50;;;;;;;0.55;63.12;95076.13;5047384;28;20283;-71
2023/01/30 07:39:29;;;;;;;24.10;17.83;;;;;;;0.58;63.38;95074.16;5044055;28;20181;-72
2023/01/30 07:41:55;;;;;;;25.90;18.37;;;;;;;0.46;63.43;95076.66;5045587;28;20220;-71
2023/01/30 07:44:20;;;;;;;27.67;19.43;;;;;;;0.33;63.41;95073.94;5044506;28;20224;-71
2023/01/30 07:46:46;;;;;;;28.00;19.67;;;;;;;0.16;64.83;95080.06;5047620;28;20228;-71
2023/01/30 07:49:11;;;;;;;25.63;18.90;;;;;;;0.41;64.19;95074.34;5044690;28;20219;-73
2023/01/30 07:51:37;;;;;;;26.80;19.50;;;;;;;0.36;63.77;95077.19;5045395;28;20260;-71
2023/01/30 07:54:03;;;;;;;23.47;17.43;;;;;;;0.53;63.46;95067.59;5048999;28;20215;-72
2023/01/30 07:56:28;;;;;;;25.77;18.37;;;;;;;0.43;62.83;95073.31;5044778;28;20316;-72
2023/01/30 07:58:55;;;;;;;25.13;18.20;;;;;;;0.49;62.95;95059.19;5045764;28;20224;-73
2023/01/30 08:01:21;;;;;;;23.73;17.97;;;;;;;0.59;62.71;95051.75;5046616;28;20220;-73
2023/01/30 08:03:48;;;;;;;21.47;16.13;;;;;;;0.57;62.59;95049.22;5048682;28;20235;-72
2023/01/30 08:06:14;;;;;;;24.43;16.73;;;;;;;0.49;62.29;95051.44;5045218;28;20363;-72
2023/01/30 08:08:40;;;;;;;20.57;15.63;;;;;;;0.53;62.24;95039.13;5048786;28;20248;-74
2023/01/30 08:11:05;;;;;;;23.00;16.13;;;;;;;0.35;62.06;95044.50;5047748;28;20220;-74
2023/01/30 08:13:31;;;;;;;21.50;15.57;;;;;;;0.43;62.44;95036.28;5046397;28;20271;-73
2023/01/30 08:16:04;;;;;;;21.77;15.93;;;;;;;0.44;62.48;95043.09;5045814;28;20201;-68
2023/01/30 08:18:31;;;;;;;25.00;16.73;;;;;;;0.54;61.79;95043.41;5049927;28;20257;-68
2023/01/30 08:21:02;;;;;;;21.77;16.40;;;;;;;0.52;62.31;95035.72;5044446;28;20217;-74
2023/01/30 08:23:28;;;;;;;25.33;17.03;;;;;;;0.37;62.43;95041.78;5046800;28;20240;-74
2023/01/30 08:26:01;;;;;;;20.47;16.13;;;;;;;0.51;61.59;95043.56;5044603;28;20248;-73
2023/01/30 08:28:28;;;;;;;20.37;15.23;;;;;;;0.54;61.54;95035.66;5047545;28;20214;-73
2023/01/30 08:30:53;;;;;;;20.50;14.40;;;;;;;0.65;61.16;95035.84;5040552;28;20189;-72
2023/01/30 08:33:23;;;;;;;21.50;15.87;;;;;;;0.81;61.05;95031.41;5044453;28;20282;-71
2023/01/30 08:35:49;;;;;;;18.50;15.13;;;;;;;0.87;60.52;95025.84;5044813;28;20221;-70
2023/01/30 08:38:14;;;;;;;29.53;16.03;;;;;;;0.92;61.40;95015.22;5044082;28;20305;-72
2023/01/30 08:40:40;;;;;;;20.67;16.10;;;;;;;1.14;59.68;95012.13;5045614;28;20213;-71
2023/01/30 08:43:07;;;;;;;21.47;16.13;;;;;;;1.12;60.07;95019.16;5045523;28;20193;-70
2023/01/30 08:45:33;;;;;;;22.03;15.73;;;;;;;1.17;59.38;95011.94;5044892;28;20197;-76
2023/01/30 08:48:04;;;;;;;21.07;15.47;;;;;;;1.13;59.85;95010.50;5043137;28;20226;-75
2023/01/30 08:50:30;;;;;;;20.70;14.87;;;;;;;1.01;59.68;94999.09;5047465;28;20237;-73
2023/01/30 08:52:56;;;;;;;20.03;15.30;;;;;;;1.03;59.06;95004.22;5041628;28;20229;-73
2023/01/30 08:55:22;;;;;;;18.77;13.60;;;;;;;0.70;59.31;95013.09;5045764;28;20217;-73
2023/01/30 08:57:47;;;;;;;16.30;12.70;;;;;;;0.93;58.45;95003.09;5044253;28;20327;-73
2023/01/30 09:00:14;;;;;;;15.60;13.10;;;;;;;1.01;57.92;95001.69;5043395;28;20237;-72
2023/01/30 09:02:39;;;;;;;15.33;12.47;;;;;;;1.13;57.76;94996.72;5043339;28;20241;-74
2023/01/30 09:05:06;;;;;;;14.27;11.23;;;;;;;0.77;58.21;94992.84;5045709;28;20239;-74
2023/01/30 09:07:32;;;;;;;13.37;10.53;;;;;;;0.85;57.86;94993.22;5043524;28;20217;-74
2023/01/30 09:09:57;;;;;;;16.50;12.43;;;;;;;1.07;57.42;94990.16;5042751;28;20232;-68
2023/01/30 09:12:23;;;;;;;18.07;12.40;;;;;;;1.28;56.34;94991.41;5044926;28;20600;-75
2023/01/30 09:14:48;;;;;;;13.73;10.60;;;;;;;0.98;56.91;94985.53;5041180;28;20217;-75
2023/01/30 09:17:14;;;;;;;14.03;11.30;;;;;;;0.98;56.95;94991.53;5044000;28;20312;-74
2023/01/30 09:19:39;;;;;;;13.90;10.97;;;;;;;0.98;57.11;94991.53;5044711;28;20300;-72
2023/01/30 09:22:06;;;;;;;14.40;11.50;;;;;;;1.20;56.72;94980.66;5043066;28;20226;-72
2023/01/30 09:24:32;;;;;;;13.70;10.73;;;;;;;1.18;56.21;94977.38;5045121;28;20189;-73
2023/01/30 09:26:58;;;;;;;12.90;10.93;;;;;;;0.93;56.85;94974.63;5043795;28;20260;-72
2023/01/30 09:29:27;;;;;;;14.87;12.03;;;;;;;0.99;56.96;94979.41;5041780;28;20245;-74
2023/01/30 09:31:55;;;;;;;16.80;13.17;;;;;;;1.06;58.18;94989.31;5042820;28;20306;-71
2023/01/30 09:34:26;;;;;;;15.47;12.40;;;;;;;0.94;58.54;94987.50;5048445;28;20541;-73
2023/01/30 09:36:52;;;;;;;14.90;12.23;;;;;;;0.73;59.32;94976.69;5039449;28;20216;-73
2023/01/30 09:39:17;;;;;;;16.03;12.30;;;;;;;0.96;59.33;94977.84;5032207;28;20325;-73
2023/01/30 09:42:15;;;;;;;17.27;12.67;;;;;;;0.97;59.92;94978.69;5045223;28;20228;-72
2023/01/30 09:44:58;;;;;;;14.37;11.10;;;;;;;1.02;59.26;94979.25;5048722;28;20221;-72
2023/01/30 09:47:45;;;;;;;17.60;12.80;;;;;;;1.12;59.05;94971.72;5041504;28;20320;-73
2023/01/30 09:50:29;;;;;;;15.47;11.30;;;;;;;1.16;59.27;94968.84;5056007;28;20258;-73
2023/01/30 09:53:19;;;;;;;15.40;12.33;;;;;;;1.13;59.77;94961.28;5042774;28;20229;-75
2023/01/30 09:55:45;;;;;;;16.20;11.50;;;;;;;1.29;59.06;94949.03;5044445;28;20274;-72
2023/01/30 09:58:21;;;;;;;15.43;12.27;;;;;;;1.33;58.90;94954.84;5046319;28;20189;-72
2023/01/30 10:00:50;;;;;;;15.97;11.60;;;;;;;1.33;58.80;94942.69;5042505;28;20293;-74
2023/01/30 10:03:40;;;;;;;15.37;11.67;;;;;;;1.22;58.84;94947.75;5046059;28;20281;-75
2023/01/30 10:06:11;;;;;;;14.93;11.10;;;;;;;1.13;58.56;94942.34;5042002;28;20238;-73
2023/01/30 10:08:37;;;;;;;17.53;11.83;;;;;;;0.95;59.64;94939.94;5065329;28;20281;-73
2023/01/30 10:11:27;;;;;;;17.63;11.83;;;;;;;1.08;59.64;94943.44;5048167;28;20348;-74
2023/01/30 10:14:06;;;;;;;15.77;11.93;;;;;;;1.27;59.20;94935.34;5050508;28;20256;-72
2023/01/30 10:16:40;;;;;;;15.30;11.83;;;;;;;0.93;60.27;94934.03;5044949;28;20222;-73
2023/01/30 10:19:24;;;;;;;16.57;12.23;;;;;;;1.23;59.46;94918.34;5049280;28;20200;-72
2023/01/30 10:21:59;;;;;;;17.27;12.23;;;;;;;1.12;59.74;94915.56;5047254;28;20278;-72
2023/01/30 10:24:36;;;;;;;13.87;10.97;;;;;;;1.16;59.89;94917.06;5051198;28;20260;-67
2023/01/30 10:27:03;;;;;;;16.80;11.73;;;;;;;1.28;59.21;94907.66;5046460;28;20243;-66
2023/01/30 10:29:53;;;;;;;15.63;12.00;;;;;;;1.01;59.68;94902.47;5048669;28;20214;-66
2023/01/30 10:32:27;;;;;;;15.37;12.30;;;;;;;1.14;59.29;94905.13;5040911;28;20242;-67
2023/01/30 10:34:57;;;;;;;15.77;12.43;;;;;;;1.26;58.77;94892.25;5044071;28;20303;-66
2023/01/30 10:37:31;;;;;;;17.17;12.90;;;;;;;1.19;58.57;94890.97;5037422;28;20300;-66
2023/01/30 10:40:11;;;;;;;18.80;13.27;;;;;;;1.13;58.59;94880.19;5038587;28;20176;-67
2023/01/30 10:42:58;;;;;;;17.63;12.67;;;;;;;1.27;57.78;94878.34;5037986;28;20213;-64
2023/01/30 10:45:43;;;;;;;18.50;13.57;;;;;;;1.21;57.36;94872.75;5041945;28;20230;-64
2023/01/30 10:48:36;;;;;;;17.33;13.93;;;;;;;1.20;57.59;94864.13;5047199;28;20612;-65
2023/01/30 10:51:33;;;;;;;18.63;13.40;;;;;;;1.17;57.78;94864.31;5048804;28;20268;-67
2023/01/30 10:54:12;;;;;;;20.40;14.73;;;;;;;1.44;56.92;94855.69;5048490;28;20224;-68
2023/01/30 10:56:56;;;;;;;18.93;13.87;;;;;;;1.43;56.63;94851.44;5046882;28;20281;-66
2023/01/30 10:59:31;;;;;;;18.20;13.23;;;;;;;1.54;56.04;94843.78;5056920;28;20217;-67
2023/01/30 11:02:14;;;;;;;16.70;12.73;;;;;;;1.69;56.18;94832.41;5046548;28;20220;-67
2023/01/30 11:04:51;;;;;;;16.83;12.63;;;;;;;1.97;54.87;94826.19;5049736;28;20282;-68
2023/01/30 11:07:16;;;;;;;17.57;12.77;;;;;;;2.06;54.78;94819.56;5040171;28;20201;-68
2023/01/30 11:09:45;;;;;;;19.90;13.57;;;;;;;2.05;54.75;94817.06;5047447;28;20259;-67
2023/01/30 11:12:11;;;;;;;17.07;12.40;;;;;;;1.79;54.89;94805.88;5048272;28;20304;-67
2023/01/30 11:14:59;;;;;;;16.83;12.73;;;;;;;2.32;54.00;94803.94;5047678;28;20308;-69
2023/01/30 11:17:32;;;;;;;16.53;11.73;;;;;;;2.55;53.49;94803.16;5045246;28;20210;-68
2023/01/30 11:20:04;;;;;;;16.63;12.23;;;;;;;2.37;53.19;94804.44;5044067;28;20232;-69
2023/01/30 11:22:33;;;;;;;16.27;11.73;;;;;;;2.90;51.67;94796.41;5045260;28;20217;-69
2023/01/30 11:25:12;;;;;;;15.17;10.43;;;;;;;2.96;51.82;94785.56;5046403;28;20213;-71
2023/01/30 11:27:41;;;;;;;18.30;12.47;;;;;;;2.88;52.59;94784.34;5045486;28;20189;-70
2023/01/30 11:30:18;;;;;;;20.80;11.87;;;;;;;3.23;51.80;94769.72;5039265;28;20282;-68
2023/01/30 11:32:47;;;;;;;16.63;11.80;;;;;;;3.13;51.93;94766.13;5044764;28;20220;-66
2023/01/30 11:35:13;;;;;;;17.23;11.30;;;;;;;3.48;51.17;94763.53;5049712;28;20235;-66
2023/01/30 11:37:40;;;;;;;19.97;12.83;;;;;;;4.01;50.69;94765.59;5046181;28;20217;-69
2023/01/30 11:40:16;;;;;;;15.13;11.57;;;;;;;3.98;50.39;94764.03;5038814;28;20216;-67
2023/01/30 11:42:45;;;;;;;18.03;12.53;;;;;;;4.27;49.42;94743.56;5048777;28;20181;-66
2023/01/30 11:45:12;;;;;;;16.07;11.33;;;;;;;4.43;48.02;94738.00;5042315;28;20250;-67